sensor_id;sensor_type;location;lat;lon;timestamp;temperature;humidity
17174;DHT22;8702;48.130;-1.696;2023-03-23T00:01:28;12.80;99.90
17174;DHT22;8702;48.130;-1.696;2023-03-23T00:03:57;12.80;99.90
17174;DHT22;8702;48.130;-1.696;2023-03-23T00:06:25;12.80;99.90
17174;DHT22;8702;48.130;-1.696;2023-03-23T00:08:54;12.80;99.90
17174;DHT22;8702;48.130;-1.696;2023-03-23T00:11:27;12.80;99.90
17174;DHT22;8702;48.130;-1.696;2023-03-23T00:14:04;12.80;99.90
17174;DHT22;8702;48.130;-1.696;2023-03-23T00:16:40;12.80;99.90
17174;DHT22;8702;48.130;-1.696;2023-03-23T00:19:09;12.80;99.90
17174;DHT22;8702;48.130;-1.696;2023-03-23T00:21:39;12.90;99.90
17174;DHT22;8702;48.130;-1.696;2023-03-23T00:24:08;12.80;99.90
17174;DHT22;8702;48.130;-1.696;2023-03-23T00:26:37;12.80;99.90
17174;DHT22;8702;48.130;-1.696;2023-03-23T00:29:06;12.90;99.90
17174;DHT22;8702;48.130;-1.696;2023-03-23T00:31:34;12.80;99.90
17174;DHT22;8702;48.130;-1.696;2023-03-23T00:34:03;12.90;99.90
17174;DHT22;8702;48.130;-1.696;2023-03-23T00:36:31;12.80;99.90
17174;DHT22;8702;48.130;-1.696;2023-03-23T00:38:59;12.80;99.90
17174;DHT22;8702;48.130;-1.696;2023-03-23T00:41:27;12.80;99.90
17174;DHT22;8702;48.130;-1.696;2023-03-23T00:43:55;12.90;99.90
17174;DHT22;8702;48.130;-1.696;2023-03-23T00:46:23;12.80;99.90
17174;DHT22;8702;48.130;-1.696;2023-03-23T00:48:50;12.80;99.90
17174;DHT22;8702;48.130;-1.696;2023-03-23T00:51:19;12.80;99.90
17174;DHT22;8702;48.130;-1.696;2023-03-23T00:53:46;12.80;99.90
17174;DHT22;8702;48.130;-1.696;2023-03-23T00:56:13;12.80;99.90
17174;DHT22;8702;48.130;-1.696;2023-03-23T00:58:41;12.80;99.90
17174;DHT22;8702;48.130;-1.696;2023-03-23T01:01:08;12.80;99.90
17174;DHT22;8702;48.130;-1.696;2023-03-23T01:03:36;12.80;99.90
17174;DHT22;8702;48.130;-1.696;2023-03-23T01:06:07;12.80;99.90
17174;DHT22;8702;48.130;-1.696;2023-03-23T01:08:39;12.80;99.90
17174;DHT22;8702;48.130;-1.696;2023-03-23T01:11:12;12.80;99.90
17174;DHT22;8702;48.130;-1.696;2023-03-23T01:13:40;12.80;99.90
17174;DHT22;8702;48.130;-1.696;2023-03-23T01:16:07;12.80;99.90
17174;DHT22;8702;48.130;-1.696;2023-03-23T01:18:34;12.80;99.90
17174;DHT22;8702;48.130;-1.696;2023-03-23T01:21:04;12.80;99.90
17174;DHT22;8702;48.130;-1.696;2023-03-23T01:23:32;12.80;99.90
17174;DHT22;8702;48.130;-1.696;2023-03-23T01:26:04;12.80;99.90
17174;DHT22;8702;48.130;-1.696;2023-03-23T01:28:31;12.80;99.90
17174;DHT22;8702;48.130;-1.696;2023-03-23T01:31:00;12.70;99.90
17174;DHT22;8702;48.130;-1.696;2023-03-23T01:33:27;12.70;99.90
17174;DHT22;8702;48.130;-1.696;2023-03-23T01:35:54;12.70;99.90
17174;DHT22;8702;48.130;-1.696;2023-03-23T01:38:21;12.70;99.90
17174;DHT22;8702;48.130;-1.696;2023-03-23T01:40:48;12.70;99.90
17174;DHT22;8702;48.130;-1.696;2023-03-23T01:43:18;12.70;99.90
17174;DHT22;8702;48.130;-1.696;2023-03-23T01:45:45;12.70;99.90
17174;DHT22;8702;48.130;-1.696;2023-03-23T01:48:17;12.70;99.90
17174;DHT22;8702;48.130;-1.696;2023-03-23T01:50:50;12.70;99.90
17174;DHT22;8702;48.130;-1.696;2023-03-23T01:53:19;12.70;99.90
17174;DHT22;8702;48.130;-1.696;2023-03-23T01:55:47;12.70;99.90
17174;DHT22;8702;48.130;-1.696;2023-03-23T01:58:17;12.60;99.90
17174;DHT22;8702;48.130;-1.696;2023-03-23T02:00:46;12.70;99.90
17174;DHT22;8702;48.130;-1.696;2023-03-23T02:03:14;12.60;99.90
17174;DHT22;8702;48.130;-1.696;2023-03-23T02:05:43;12.60;99.90
17174;DHT22;8702;48.130;-1.696;2023-03-23T02:08:11;12.60;99.90
17174;DHT22;8702;48.130;-1.696;2023-03-23T02:10:39;12.60;99.90
17174;DHT22;8702;48.130;-1.696;2023-03-23T02:13:09;12.60;99.90
17174;DHT22;8702;48.130;-1.696;2023-03-23T02:15:44;12.60;99.90
17174;DHT22;8702;48.130;-1.696;2023-03-23T02:18:25;12.60;99.90
17174;DHT22;8702;48.130;-1.696;2023-03-23T02:21:20;12.60;99.90
17174;DHT22;8702;48.130;-1.696;2023-03-23T02:27:08;12.60;99.90
17174;DHT22;8702;48.130;-1.696;2023-03-23T02:29:52;12.60;99.90
17174;DHT22;8702;48.130;-1.696;2023-03-23T02:32:57;12.50;99.90
17174;DHT22;8702;48.130;-1.696;2023-03-23T02:35:30;12.50;99.90
17174;DHT22;8702;48.130;-1.696;2023-03-23T02:38:03;12.50;99.90
17174;DHT22;8702;48.130;-1.696;2023-03-23T02:40:36;12.50;99.90
17174;DHT22;8702;48.130;-1.696;2023-03-23T02:43:07;12.50;99.90
17174;DHT22;8702;48.130;-1.696;2023-03-23T02:45:36;12.50;99.90
17174;DHT22;8702;48.130;-1.696;2023-03-23T02:48:05;12.50;99.90
17174;DHT22;8702;48.130;-1.696;2023-03-23T02:50:37;12.50;99.90
17174;DHT22;8702;48.130;-1.696;2023-03-23T02:53:08;12.50;99.90
17174;DHT22;8702;48.130;-1.696;2023-03-23T02:55:38;12.50;99.90
17174;DHT22;8702;48.130;-1.696;2023-03-23T02:58:07;12.40;99.90
17174;DHT22;8702;48.130;-1.696;2023-03-23T03:00:34;12.40;99.90
17174;DHT22;8702;48.130;-1.696;2023-03-23T03:03:05;12.60;99.90
17174;DHT22;8702;48.130;-1.696;2023-03-23T03:05:40;12.40;99.90
17174;DHT22;8702;48.130;-1.696;2023-03-23T03:08:18;12.30;99.90
17174;DHT22;8702;48.130;-1.696;2023-03-23T03:10:52;12.30;99.90
17174;DHT22;8702;48.130;-1.696;2023-03-23T03:13:35;12.40;99.90
17174;DHT22;8702;48.130;-1.696;2023-03-23T03:16:09;12.40;99.90
17174;DHT22;8702;48.130;-1.696;2023-03-23T03:18:44;12.40;99.90
17174;DHT22;8702;48.130;-1.696;2023-03-23T03:21:15;12.40;99.90
17174;DHT22;8702;48.130;-1.696;2023-03-23T03:23:47;12.40;99.90
17174;DHT22;8702;48.130;-1.696;2023-03-23T03:28:44;12.40;99.90
17174;DHT22;8702;48.130;-1.696;2023-03-23T03:31:13;12.40;99.90
17174;DHT22;8702;48.130;-1.696;2023-03-23T03:33:41;12.40;99.90
17174;DHT22;8702;48.130;-1.696;2023-03-23T03:36:16;12.40;99.90
17174;DHT22;8702;48.130;-1.696;2023-03-23T03:38:46;12.40;99.90
17174;DHT22;8702;48.130;-1.696;2023-03-23T03:41:14;12.40;99.90
17174;DHT22;8702;48.130;-1.696;2023-03-23T03:43:41;12.40;99.90
17174;DHT22;8702;48.130;-1.696;2023-03-23T03:46:08;12.40;99.90
17174;DHT22;8702;48.130;-1.696;2023-03-23T03:48:35;12.40;99.90
17174;DHT22;8702;48.130;-1.696;2023-03-23T03:51:03;12.40;99.90
17174;DHT22;8702;48.130;-1.696;2023-03-23T03:53:33;12.30;99.90
17174;DHT22;8702;48.130;-1.696;2023-03-23T03:56:00;12.40;99.90
17174;DHT22;8702;48.130;-1.696;2023-03-23T03:58:27;12.40;99.90
17174;DHT22;8702;48.130;-1.696;2023-03-23T04:00:57;12.40;99.90
17174;DHT22;8702;48.130;-1.696;2023-03-23T06:56:32;12.90;99.90
17174;DHT22;8702;48.130;-1.696;2023-03-23T06:58:59;12.80;99.90
17174;DHT22;8702;48.130;-1.696;2023-03-23T07:01:26;12.80;99.90
17174;DHT22;8702;48.130;-1.696;2023-03-23T07:03:55;12.80;99.90
17174;DHT22;8702;48.130;-1.696;2023-03-23T07:06:24;12.80;99.90
17174;DHT22;8702;48.130;-1.696;2023-03-23T07:08:51;12.90;99.90
17174;DHT22;8702;48.130;-1.696;2023-03-23T07:11:18;12.90;99.90
17174;DHT22;8702;48.130;-1.696;2023-03-23T07:13:45;13.00;99.90
17174;DHT22;8702;48.130;-1.696;2023-03-23T07:16:12;13.00;99.90
17174;DHT22;8702;48.130;-1.696;2023-03-23T07:18:39;13.00;99.90
17174;DHT22;8702;48.130;-1.696;2023-03-23T07:21:08;13.00;99.90
17174;DHT22;8702;48.130;-1.696;2023-03-23T07:23:35;13.00;99.90
17174;DHT22;8702;48.130;-1.696;2023-03-23T07:26:02;13.10;99.90
17174;DHT22;8702;48.130;-1.696;2023-03-23T07:28:29;13.10;99.90
17174;DHT22;8702;48.130;-1.696;2023-03-23T07:30:56;13.10;99.90
17174;DHT22;8702;48.130;-1.696;2023-03-23T07:33:23;13.10;99.90
17174;DHT22;8702;48.130;-1.696;2023-03-23T07:35:51;13.10;99.90
17174;DHT22;8702;48.130;-1.696;2023-03-23T07:38:19;13.10;99.90
17174;DHT22;8702;48.130;-1.696;2023-03-23T07:40:46;13.10;99.90
17174;DHT22;8702;48.130;-1.696;2023-03-23T07:43:14;13.10;99.90
17174;DHT22;8702;48.130;-1.696;2023-03-23T07:45:41;13.20;99.90
17174;DHT22;8702;48.130;-1.696;2023-03-23T07:48:08;13.20;99.90
17174;DHT22;8702;48.130;-1.696;2023-03-23T07:50:35;13.20;99.90
17174;DHT22;8702;48.130;-1.696;2023-03-23T07:53:02;13.30;99.90
17174;DHT22;8702;48.130;-1.696;2023-03-23T07:55:31;13.30;99.90
17174;DHT22;8702;48.130;-1.696;2023-03-23T07:57:58;13.30;99.90
17174;DHT22;8702;48.130;-1.696;2023-03-23T08:00:25;13.30;99.90
17174;DHT22;8702;48.130;-1.696;2023-03-23T08:02:53;13.40;99.90
17174;DHT22;8702;48.130;-1.696;2023-03-23T08:05:22;13.40;99.90
17174;DHT22;8702;48.130;-1.696;2023-03-23T08:07:51;13.40;99.90
17174;DHT22;8702;48.130;-1.696;2023-03-23T08:10:19;13.40;99.90
17174;DHT22;8702;48.130;-1.696;2023-03-23T08:12:53;13.40;99.90
17174;DHT22;8702;48.130;-1.696;2023-03-23T08:15:21;13.40;99.90
17174;DHT22;8702;48.130;-1.696;2023-03-23T08:17:48;13.40;99.90
17174;DHT22;8702;48.130;-1.696;2023-03-23T08:20:16;13.40;99.90
17174;DHT22;8702;48.130;-1.696;2023-03-23T08:22:54;13.40;99.90
17174;DHT22;8702;48.130;-1.696;2023-03-23T08:25:23;13.40;99.90
17174;DHT22;8702;48.130;-1.696;2023-03-23T08:27:53;13.50;99.90
17174;DHT22;8702;48.130;-1.696;2023-03-23T08:30:21;13.60;99.90
17174;DHT22;8702;48.130;-1.696;2023-03-23T08:32:51;13.60;99.90
17174;DHT22;8702;48.130;-1.696;2023-03-23T08:35:19;13.60;99.90
17174;DHT22;8702;48.130;-1.696;2023-03-23T08:40:17;13.60;99.90
17174;DHT22;8702;48.130;-1.696;2023-03-23T08:42:46;13.60;99.90
17174;DHT22;8702;48.130;-1.696;2023-03-23T08:45:16;13.60;99.90
17174;DHT22;8702;48.130;-1.696;2023-03-23T08:47:44;13.60;99.90
17174;DHT22;8702;48.130;-1.696;2023-03-23T08:52:43;13.50;99.90
17174;DHT22;8702;48.130;-1.696;2023-03-23T08:55:10;13.60;99.90
17174;DHT22;8702;48.130;-1.696;2023-03-23T08:57:40;13.60;99.90
17174;DHT22;8702;48.130;-1.696;2023-03-23T09:00:11;13.60;99.90
17174;DHT22;8702;48.130;-1.696;2023-03-23T09:02:45;13.60;99.90
17174;DHT22;8702;48.130;-1.696;2023-03-23T09:05:13;13.60;99.90
17174;DHT22;8702;48.130;-1.696;2023-03-23T09:07:42;13.60;99.90
17174;DHT22;8702;48.130;-1.696;2023-03-23T09:10:09;13.60;99.90
17174;DHT22;8702;48.130;-1.696;2023-03-23T09:12:36;13.60;99.90
17174;DHT22;8702;48.130;-1.696;2023-03-23T09:15:04;13.50;99.90
17174;DHT22;8702;48.130;-1.696;2023-03-23T09:17:35;13.50;99.90
17174;DHT22;8702;48.130;-1.696;2023-03-23T09:20:06;13.40;99.90
17174;DHT22;8702;48.130;-1.696;2023-03-23T09:22:37;13.50;99.90
17174;DHT22;8702;48.130;-1.696;2023-03-23T09:25:06;13.50;99.90
17174;DHT22;8702;48.130;-1.696;2023-03-23T09:27:33;13.50;99.90
17174;DHT22;8702;48.130;-1.696;2023-03-23T09:30:02;13.60;99.90
17174;DHT22;8702;48.130;-1.696;2023-03-23T09:32:32;13.60;99.90
17174;DHT22;8702;48.130;-1.696;2023-03-23T09:35:00;13.60;99.90
17174;DHT22;8702;48.130;-1.696;2023-03-23T09:37:29;13.70;99.90
17174;DHT22;8702;48.130;-1.696;2023-03-23T09:39:56;13.70;99.90
17174;DHT22;8702;48.130;-1.696;2023-03-23T09:42:39;13.70;99.90
17174;DHT22;8702;48.130;-1.696;2023-03-23T09:47:43;13.80;99.90
17174;DHT22;8702;48.130;-1.696;2023-03-23T09:50:19;13.80;99.90
17174;DHT22;8702;48.130;-1.696;2023-03-23T09:52:52;13.90;99.90
17174;DHT22;8702;48.130;-1.696;2023-03-23T09:55:21;14.00;99.90
17174;DHT22;8702;48.130;-1.696;2023-03-23T09:57:52;14.10;99.90
17174;DHT22;8702;48.130;-1.696;2023-03-23T10:00:24;14.20;99.90
17174;DHT22;8702;48.130;-1.696;2023-03-23T10:02:59;14.10;99.90
17174;DHT22;8702;48.130;-1.696;2023-03-23T10:05:31;14.20;99.90
17174;DHT22;8702;48.130;-1.696;2023-03-23T10:08:13;14.20;99.90
17174;DHT22;8702;48.130;-1.696;2023-03-23T10:10:47;14.20;99.90
17174;DHT22;8702;48.130;-1.696;2023-03-23T10:13:23;13.70;99.90
17174;DHT22;8702;48.130;-1.696;2023-03-23T10:15:52;14.20;99.90
17174;DHT22;8702;48.130;-1.696;2023-03-23T10:18:25;14.20;99.90
17174;DHT22;8702;48.130;-1.696;2023-03-23T10:20:55;14.20;99.90
17174;DHT22;8702;48.130;-1.696;2023-03-23T10:23:51;14.20;99.90
17174;DHT22;8702;48.130;-1.696;2023-03-23T10:26:36;14.30;99.90
17174;DHT22;8702;48.130;-1.696;2023-03-23T10:29:13;14.20;99.90
17174;DHT22;8702;48.130;-1.696;2023-03-23T10:31:44;14.20;99.90
17174;DHT22;8702;48.130;-1.696;2023-03-23T10:34:22;14.30;99.90
17174;DHT22;8702;48.130;-1.696;2023-03-23T10:36:57;14.30;99.90
17174;DHT22;8702;48.130;-1.696;2023-03-23T10:39:30;14.60;99.90
17174;DHT22;8702;48.130;-1.696;2023-03-23T10:42:01;14.10;99.90
17174;DHT22;8702;48.130;-1.696;2023-03-23T10:47:01;14.40;99.90
17174;DHT22;8702;48.130;-1.696;2023-03-23T10:52:04;14.30;99.90
17174;DHT22;8702;48.130;-1.696;2023-03-23T10:54:37;14.30;99.90
17174;DHT22;8702;48.130;-1.696;2023-03-23T10:57:17;14.30;99.90
17174;DHT22;8702;48.130;-1.696;2023-03-23T10:59:47;14.40;99.90
17174;DHT22;8702;48.130;-1.696;2023-03-23T11:02:16;14.40;99.90
17174;DHT22;8702;48.130;-1.696;2023-03-23T11:04:46;14.30;99.90
17174;DHT22;8702;48.130;-1.696;2023-03-23T11:07:19;14.20;99.90
17174;DHT22;8702;48.130;-1.696;2023-03-23T11:09:56;14.20;99.90
17174;DHT22;8702;48.130;-1.696;2023-03-23T11:12:24;14.20;99.90
17174;DHT22;8702;48.130;-1.696;2023-03-23T11:14:51;14.30;99.90
17174;DHT22;8702;48.130;-1.696;2023-03-23T11:17:23;14.30;99.90
17174;DHT22;8702;48.130;-1.696;2023-03-23T11:19:52;14.30;99.90
17174;DHT22;8702;48.130;-1.696;2023-03-23T11:22:25;14.30;99.90
17174;DHT22;8702;48.130;-1.696;2023-03-23T11:24:56;14.30;99.90
17174;DHT22;8702;48.130;-1.696;2023-03-23T11:27:27;14.30;99.90
17174;DHT22;8702;48.130;-1.696;2023-03-23T11:29:56;14.30;99.90
17174;DHT22;8702;48.130;-1.696;2023-03-23T11:32:28;14.30;99.90
17174;DHT22;8702;48.130;-1.696;2023-03-23T11:34:58;14.40;99.90
17174;DHT22;8702;48.130;-1.696;2023-03-23T11:37:32;14.40;99.90
17174;DHT22;8702;48.130;-1.696;2023-03-23T11:40:02;14.40;99.90
17174;DHT22;8702;48.130;-1.696;2023-03-23T11:42:43;14.50;99.90
17174;DHT22;8702;48.130;-1.696;2023-03-23T11:45:17;14.30;99.90
17174;DHT22;8702;48.130;-1.696;2023-03-23T11:47:53;14.30;99.90
17174;DHT22;8702;48.130;-1.696;2023-03-23T11:50:24;14.30;99.90
17174;DHT22;8702;48.130;-1.696;2023-03-23T11:53:00;14.30;99.90
17174;DHT22;8702;48.130;-1.696;2023-03-23T11:55:35;14.80;99.90
17174;DHT22;8702;48.130;-1.696;2023-03-23T11:58:13;14.40;99.90
17174;DHT22;8702;48.130;-1.696;2023-03-23T12:00:45;14.40;99.90
17174;DHT22;8702;48.130;-1.696;2023-03-23T12:03:43;14.50;99.90
17174;DHT22;8702;48.130;-1.696;2023-03-23T12:06:19;14.60;99.90
17174;DHT22;8702;48.130;-1.696;2023-03-23T12:08:59;14.60;99.90
17174;DHT22;8702;48.130;-1.696;2023-03-23T12:11:39;14.70;99.90
17174;DHT22;8702;48.130;-1.696;2023-03-23T12:14:16;14.80;99.90
17174;DHT22;8702;48.130;-1.696;2023-03-23T12:16:54;14.90;99.90
17174;DHT22;8702;48.130;-1.696;2023-03-23T12:19:30;14.90;99.90
17174;DHT22;8702;48.130;-1.696;2023-03-23T12:22:04;15.00;99.90
17174;DHT22;8702;48.130;-1.696;2023-03-23T12:24:43;14.10;99.90
17174;DHT22;8702;48.130;-1.696;2023-03-23T12:27:22;15.10;99.90
17174;DHT22;8702;48.130;-1.696;2023-03-23T12:30:11;15.10;99.90
17174;DHT22;8702;48.130;-1.696;2023-03-23T12:32:50;15.10;99.90
17174;DHT22;8702;48.130;-1.696;2023-03-23T12:35:28;15.20;99.90
17174;DHT22;8702;48.130;-1.696;2023-03-23T12:38:10;15.40;99.90
17174;DHT22;8702;48.130;-1.696;2023-03-23T12:41:00;15.50;99.90
17174;DHT22;8702;48.130;-1.696;2023-03-23T12:43:37;15.40;99.90
17174;DHT22;8702;48.130;-1.696;2023-03-23T12:46:17;15.30;99.90
17174;DHT22;8702;48.130;-1.696;2023-03-23T12:48:51;15.30;99.90
17174;DHT22;8702;48.130;-1.696;2023-03-23T12:51:23;15.30;99.90
17174;DHT22;8702;48.130;-1.696;2023-03-23T12:53:57;15.30;99.90
17174;DHT22;8702;48.130;-1.696;2023-03-23T12:56:29;15.40;99.90
17174;DHT22;8702;48.130;-1.696;2023-03-23T12:59:06;15.40;99.90
17174;DHT22;8702;48.130;-1.696;2023-03-23T13:01:40;15.50;99.90
17174;DHT22;8702;48.130;-1.696;2023-03-23T13:04:13;15.50;99.90
17174;DHT22;8702;48.130;-1.696;2023-03-23T13:06:43;15.60;99.90
17174;DHT22;8702;48.130;-1.696;2023-03-23T13:09:14;15.50;99.90
17174;DHT22;8702;48.130;-1.696;2023-03-23T13:11:43;15.50;99.90
17174;DHT22;8702;48.130;-1.696;2023-03-23T13:14:37;15.40;99.90
17174;DHT22;8702;48.130;-1.696;2023-03-23T13:17:13;15.50;99.90
17174;DHT22;8702;48.130;-1.696;2023-03-23T13:30:05;15.80;99.90
17174;DHT22;8702;48.130;-1.696;2023-03-23T13:32:47;15.70;99.90
17174;DHT22;8702;48.130;-1.696;2023-03-23T13:35:17;15.70;99.90
17174;DHT22;8702;48.130;-1.696;2023-03-23T13:37:47;15.70;99.90
17174;DHT22;8702;48.130;-1.696;2023-03-23T13:45:24;15.80;99.90
17174;DHT22;8702;48.130;-1.696;2023-03-23T13:48:05;15.60;99.90
17174;DHT22;8702;48.130;-1.696;2023-03-23T13:50:44;15.50;99.90
17174;DHT22;8702;48.130;-1.696;2023-03-23T13:55:51;15.40;99.90
17174;DHT22;8702;48.130;-1.696;2023-03-23T13:58:23;15.30;99.90
17174;DHT22;8702;48.130;-1.696;2023-03-23T14:01:10;15.20;99.90
17174;DHT22;8702;48.130;-1.696;2023-03-23T14:03:40;15.20;99.90
17174;DHT22;8702;48.130;-1.696;2023-03-23T14:06:12;15.20;99.90
17174;DHT22;8702;48.130;-1.696;2023-03-23T14:08:42;15.20;99.90
17174;DHT22;8702;48.130;-1.696;2023-03-23T14:11:12;15.20;99.90
17174;DHT22;8702;48.130;-1.696;2023-03-23T14:13:44;15.20;99.90
17174;DHT22;8702;48.130;-1.696;2023-03-23T14:16:19;15.10;99.90
17174;DHT22;8702;48.130;-1.696;2023-03-23T14:18:54;15.20;99.90
17174;DHT22;8702;48.130;-1.696;2023-03-23T14:21:33;15.10;99.90
17174;DHT22;8702;48.130;-1.696;2023-03-23T14:24:06;15.10;99.90
17174;DHT22;8702;48.130;-1.696;2023-03-23T14:26:37;15.10;99.90
17174;DHT22;8702;48.130;-1.696;2023-03-23T14:29:05;15.20;99.90
17174;DHT22;8702;48.130;-1.696;2023-03-23T14:31:35;15.20;99.90
17174;DHT22;8702;48.130;-1.696;2023-03-23T14:34:04;15.00;99.90
17174;DHT22;8702;48.130;-1.696;2023-03-23T14:36:39;14.80;99.90
17174;DHT22;8702;48.130;-1.696;2023-03-23T14:39:14;14.70;99.90
17174;DHT22;8702;48.130;-1.696;2023-03-23T14:49:13;14.50;99.90
17174;DHT22;8702;48.130;-1.696;2023-03-23T14:56:41;14.30;99.90
17174;DHT22;8702;48.130;-1.696;2023-03-23T14:59:10;14.30;99.90
17174;DHT22;8702;48.130;-1.696;2023-03-23T15:04:11;14.30;99.90
17174;DHT22;8702;48.130;-1.696;2023-03-23T15:09:14;14.20;99.90
17174;DHT22;8702;48.130;-1.696;2023-03-23T15:11:43;14.10;99.90
17174;DHT22;8702;48.130;-1.696;2023-03-23T15:14:15;14.10;99.90
17174;DHT22;8702;48.130;-1.696;2023-03-23T15:16:47;13.90;99.90
17174;DHT22;8702;48.130;-1.696;2023-03-23T15:21:51;13.90;99.90
17174;DHT22;8702;48.130;-1.696;2023-03-23T15:24:24;13.90;99.90
17174;DHT22;8702;48.130;-1.696;2023-03-23T15:27:02;13.90;99.90
17174;DHT22;8702;48.130;-1.696;2023-03-23T15:29:30;13.90;99.90
17174;DHT22;8702;48.130;-1.696;2023-03-23T15:31:57;13.70;99.90
17174;DHT22;8702;48.130;-1.696;2023-03-23T15:34:30;13.80;99.90
17174;DHT22;8702;48.130;-1.696;2023-03-23T15:36:59;13.80;99.90
17174;DHT22;8702;48.130;-1.696;2023-03-23T15:39:28;13.80;99.90
17174;DHT22;8702;48.130;-1.696;2023-03-23T15:49:26;13.70;99.90
17174;DHT22;8702;48.130;-1.696;2023-03-23T15:51:53;13.70;99.90
17174;DHT22;8702;48.130;-1.696;2023-03-23T15:54:20;13.60;99.90
17174;DHT22;8702;48.130;-1.696;2023-03-23T15:56:47;13.60;99.90
17174;DHT22;8702;48.130;-1.696;2023-03-23T15:59:14;13.60;99.90
17174;DHT22;8702;48.130;-1.696;2023-03-23T16:01:41;13.60;99.90
17174;DHT22;8702;48.130;-1.696;2023-03-23T16:04:12;13.50;99.90
17174;DHT22;8702;48.130;-1.696;2023-03-23T16:06:42;13.50;99.90
17174;DHT22;8702;48.130;-1.696;2023-03-23T16:09:13;13.50;99.90
17174;DHT22;8702;48.130;-1.696;2023-03-23T16:11:41;13.40;99.90
17174;DHT22;8702;48.130;-1.696;2023-03-23T16:14:08;13.40;99.90
17174;DHT22;8702;48.130;-1.696;2023-03-23T16:16:37;13.40;99.90
17174;DHT22;8702;48.130;-1.696;2023-03-23T16:19:04;13.30;99.90
17174;DHT22;8702;48.130;-1.696;2023-03-23T16:21:33;13.30;99.90
17174;DHT22;8702;48.130;-1.696;2023-03-23T16:24:01;13.30;99.90
17174;DHT22;8702;48.130;-1.696;2023-03-23T16:26:28;13.30;99.90
17174;DHT22;8702;48.130;-1.696;2023-03-23T16:28:55;13.30;99.90
17174;DHT22;8702;48.130;-1.696;2023-03-23T16:33:49;13.30;99.90
17174;DHT22;8702;48.130;-1.696;2023-03-23T16:36:16;13.30;99.90
17174;DHT22;8702;48.130;-1.696;2023-03-23T16:38:45;13.30;99.90
17174;DHT22;8702;48.130;-1.696;2023-03-23T16:41:17;13.30;99.90
17174;DHT22;8702;48.130;-1.696;2023-03-23T16:43:44;13.30;99.90
17174;DHT22;8702;48.130;-1.696;2023-03-23T16:46:11;13.30;99.90
17174;DHT22;8702;48.130;-1.696;2023-03-23T16:48:39;13.30;99.90
17174;DHT22;8702;48.130;-1.696;2023-03-23T16:51:06;13.30;99.90
17174;DHT22;8702;48.130;-1.696;2023-03-23T16:53:33;13.30;99.90
17174;DHT22;8702;48.130;-1.696;2023-03-23T16:56:01;13.30;99.90
17174;DHT22;8702;48.130;-1.696;2023-03-23T16:58:29;13.30;99.90
17174;DHT22;8702;48.130;-1.696;2023-03-23T17:01:00;13.30;99.90
17174;DHT22;8702;48.130;-1.696;2023-03-23T17:03:27;13.30;99.90
17174;DHT22;8702;48.130;-1.696;2023-03-23T17:05:54;13.30;99.90
17174;DHT22;8702;48.130;-1.696;2023-03-23T17:08:21;13.30;99.90
17174;DHT22;8702;48.130;-1.696;2023-03-23T17:10:50;13.40;99.90
17174;DHT22;8702;48.130;-1.696;2023-03-23T17:13:17;13.30;99.90
17174;DHT22;8702;48.130;-1.696;2023-03-23T17:15:45;13.30;99.90
17174;DHT22;8702;48.130;-1.696;2023-03-23T17:18:13;13.30;99.90
17174;DHT22;8702;48.130;-1.696;2023-03-23T17:20:40;13.30;99.90
17174;DHT22;8702;48.130;-1.696;2023-03-23T17:25:35;13.30;99.90
17174;DHT22;8702;48.130;-1.696;2023-03-23T17:28:02;13.30;99.90
17174;DHT22;8702;48.130;-1.696;2023-03-23T17:30:29;13.30;99.90
17174;DHT22;8702;48.130;-1.696;2023-03-23T17:32:57;13.40;99.90
17174;DHT22;8702;48.130;-1.696;2023-03-23T17:35:24;13.40;99.90
17174;DHT22;8702;48.130;-1.696;2023-03-23T17:40:18;13.40;99.90
17174;DHT22;8702;48.130;-1.696;2023-03-23T17:42:48;13.40;99.90
17174;DHT22;8702;48.130;-1.696;2023-03-23T17:45:15;13.30;99.90
17174;DHT22;8702;48.130;-1.696;2023-03-23T17:47:42;13.40;99.90
17174;DHT22;8702;48.130;-1.696;2023-03-23T17:50:10;13.40;99.90
17174;DHT22;8702;48.130;-1.696;2023-03-23T17:55:06;13.40;99.90
17174;DHT22;8702;48.130;-1.696;2023-03-23T17:57:33;13.40;99.90
17174;DHT22;8702;48.130;-1.696;2023-03-23T18:02:28;13.40;99.90
17174;DHT22;8702;48.130;-1.696;2023-03-23T18:04:56;13.40;99.90
17174;DHT22;8702;48.130;-1.696;2023-03-23T18:07:25;13.40;99.90
17174;DHT22;8702;48.130;-1.696;2023-03-23T18:12:23;13.40;99.90
17174;DHT22;8702;48.130;-1.696;2023-03-23T18:14:50;13.40;99.90
17174;DHT22;8702;48.130;-1.696;2023-03-23T18:19:48;13.40;99.90
17174;DHT22;8702;48.130;-1.696;2023-03-23T18:22:15;13.40;99.90
17174;DHT22;8702;48.130;-1.696;2023-03-23T18:24:44;13.40;99.90
17174;DHT22;8702;48.130;-1.696;2023-03-23T18:27:11;13.30;99.90
17174;DHT22;8702;48.130;-1.696;2023-03-23T18:29:38;13.30;99.90
17174;DHT22;8702;48.130;-1.696;2023-03-23T18:32:05;13.30;99.90
17174;DHT22;8702;48.130;-1.696;2023-03-23T18:34:33;13.30;99.90
17174;DHT22;8702;48.130;-1.696;2023-03-23T18:37:03;13.30;99.90
17174;DHT22;8702;48.130;-1.696;2023-03-23T19:01:40;13.20;99.90
17174;DHT22;8702;48.130;-1.696;2023-03-23T19:04:08;13.20;99.90
17174;DHT22;8702;48.130;-1.696;2023-03-23T19:06:38;13.20;99.90
17174;DHT22;8702;48.130;-1.696;2023-03-23T19:09:06;13.20;99.90
17174;DHT22;8702;48.130;-1.696;2023-03-23T19:11:32;13.20;99.90
17174;DHT22;8702;48.130;-1.696;2023-03-23T19:14:01;13.20;99.90
17174;DHT22;8702;48.130;-1.696;2023-03-23T19:16:29;13.10;99.90
17174;DHT22;8702;48.130;-1.696;2023-03-23T19:18:57;13.20;99.90
17174;DHT22;8702;48.130;-1.696;2023-03-23T19:21:24;13.20;99.90
17174;DHT22;8702;48.130;-1.696;2023-03-23T19:23:51;13.10;99.90
17174;DHT22;8702;48.130;-1.696;2023-03-23T19:26:21;13.10;99.90
17174;DHT22;8702;48.130;-1.696;2023-03-23T19:28:48;13.10;99.90
17174;DHT22;8702;48.130;-1.696;2023-03-23T19:31:15;13.10;99.90
17174;DHT22;8702;48.130;-1.696;2023-03-23T19:33:46;13.00;99.90
17174;DHT22;8702;48.130;-1.696;2023-03-23T19:36:13;13.00;99.90
17174;DHT22;8702;48.130;-1.696;2023-03-23T19:38:40;13.10;99.90
17174;DHT22;8702;48.130;-1.696;2023-03-23T19:41:07;12.20;99.90
17174;DHT22;8702;48.130;-1.696;2023-03-23T19:43:34;13.00;99.90
17174;DHT22;8702;48.130;-1.696;2023-03-23T19:46:01;13.00;99.90
17174;DHT22;8702;48.130;-1.696;2023-03-23T19:48:28;13.00;99.90
17174;DHT22;8702;48.130;-1.696;2023-03-23T19:50:57;13.00;99.90
17174;DHT22;8702;48.130;-1.696;2023-03-23T19:53:24;13.00;99.90
17174;DHT22;8702;48.130;-1.696;2023-03-23T19:55:52;13.00;99.90
17174;DHT22;8702;48.130;-1.696;2023-03-23T19:58:18;13.00;99.90
17174;DHT22;8702;48.130;-1.696;2023-03-23T20:00:46;12.90;99.90
17174;DHT22;8702;48.130;-1.696;2023-03-23T20:03:14;12.90;99.90
17174;DHT22;8702;48.130;-1.696;2023-03-23T20:05:41;12.90;99.90
17174;DHT22;8702;48.130;-1.696;2023-03-23T20:08:10;12.80;99.90
17174;DHT22;8702;48.130;-1.696;2023-03-23T20:10:37;12.80;99.90
17174;DHT22;8702;48.130;-1.696;2023-03-23T20:13:10;12.80;99.90
17174;DHT22;8702;48.130;-1.696;2023-03-23T20:15:37;12.80;99.90
17174;DHT22;8702;48.130;-1.696;2023-03-23T20:20:34;12.80;99.90
17174;DHT22;8702;48.130;-1.696;2023-03-23T20:23:01;12.80;99.90
17174;DHT22;8702;48.130;-1.696;2023-03-23T20:25:30;12.90;99.90
17174;DHT22;8702;48.130;-1.696;2023-03-23T20:27:57;12.90;99.90
17174;DHT22;8702;48.130;-1.696;2023-03-23T20:30:24;12.90;99.90